createdAt,value
2023-05-18T00:00:29.341Z,100148.09
2023-05-18T00:03:00.074Z,100145.75
2023-05-18T00:05:35.574Z,100147.16
2023-05-18T00:08:05.698Z,100151.97
2023-05-18T00:10:35.693Z,100142.88
2023-05-18T00:13:06.922Z,100141.06
2023-05-18T00:15:36.738Z,100145.94
2023-05-18T00:18:07.005Z,100149.44
2023-05-18T00:20:38.603Z,100144.84
2023-05-18T00:23:18.127Z,100143.13
2023-05-18T00:25:47.896Z,100149.25
2023-05-18T00:28:17.813Z,100149.69
2023-05-18T00:30:48.748Z,100151.38
2023-05-18T00:33:18.473Z,100152.59
2023-05-18T00:35:48.832Z,100157.59
2023-05-18T00:38:19.406Z,100149.31
2023-05-18T00:40:49.116Z,100148.25
2023-05-18T00:43:19.837Z,100151.16
2023-05-18T00:45:49.605Z,100140.38
2023-05-18T00:48:19.859Z,100143.88
2023-05-18T00:50:49.685Z,100146.16
2023-05-18T00:53:19.398Z,100137.22
2023-05-18T00:55:49.204Z,100133.66
2023-05-18T00:58:19.122Z,100127.84
2023-05-18T01:00:48.840Z,100131.59
2023-05-18T01:03:22.118Z,100129.09
2023-05-18T01:05:57.256Z,100128.84
2023-05-18T01:08:27.550Z,100125.72
2023-05-18T01:11:02.380Z,100124.50
2023-05-18T01:13:43.710Z,100125.72
2023-05-18T01:16:17.531Z,100121.34
2023-05-18T01:18:56.523Z,100119.06
2023-05-18T01:22:06.728Z,100115.53
2023-05-18T01:24:50.138Z,100114.06
2023-05-18T01:27:23.091Z,100107.63
2023-05-18T01:29:53.891Z,100104.88
2023-05-18T01:32:24.013Z,100104.63
2023-05-18T01:34:53.829Z,100088.19
2023-05-18T01:37:23.945Z,100087.97
2023-05-18T01:39:53.647Z,100089.84
2023-05-18T01:42:25.249Z,100101.03
2023-05-18T01:44:57.320Z,100096.88
2023-05-18T01:47:27.206Z,100091.31
2023-05-18T01:50:05.067Z,100093.53
2023-05-18T01:52:48.620Z,100097.94
2023-05-18T01:55:18.326Z,100096.44
2023-05-18T01:57:48.545Z,100096.66
2023-05-18T02:00:21.314Z,100095.44
2023-05-18T02:02:51.246Z,100091.25
2023-05-18T02:05:21.518Z,100093.72
2023-05-18T02:07:51.550Z,100093.13
2023-05-18T02:10:21.397Z,100096.66
2023-05-18T02:12:55.203Z,100086.25
2023-05-18T02:15:24.947Z,100087.94
2023-05-18T02:17:59.626Z,100081.50
2023-05-18T02:20:34.609Z,100077.09
2023-05-18T02:23:04.823Z,100082.06
2023-05-18T02:25:34.744Z,100083.72
2023-05-18T02:28:04.543Z,100082.50
2023-05-18T02:30:34.908Z,100072.31
2023-05-18T02:33:07.073Z,100071.56
2023-05-18T02:35:39.528Z,100067.81
2023-05-18T02:38:09.349Z,100067.81
2023-05-18T02:40:41.802Z,100067.16
2023-05-18T02:43:11.545Z,100063.81
2023-05-18T02:45:41.319Z,100052.41
2023-05-18T02:48:11.122Z,100061.97
2023-05-18T02:50:40.932Z,100055.28
2023-05-18T02:53:10.726Z,100055.50
2023-05-18T02:55:41.228Z,100060.28
2023-05-18T02:58:11.337Z,100066.53
2023-05-18T03:00:41.254Z,100063.63
2023-05-18T03:03:17.342Z,100059.63
2023-05-18T03:05:47.396Z,100054.69
2023-05-18T03:08:17.093Z,100048.44
2023-05-18T03:10:47.133Z,100051.41
2023-05-18T03:13:17.121Z,100048.69
2023-05-18T03:15:50.796Z,100035.19
2023-05-18T03:18:23.270Z,100028.97
2023-05-18T03:20:54.871Z,100021.63
2023-05-18T03:23:24.683Z,100010.88
2023-05-18T03:25:57.102Z,100008.97
2023-05-18T03:28:27.992Z,100006.06
2023-05-18T03:31:08.565Z,99993.94
2023-05-18T03:33:38.407Z,99990.06
2023-05-18T03:36:08.458Z,99988.72
2023-05-18T03:38:38.223Z,99984.69
2023-05-18T03:41:07.980Z,99981.81
2023-05-18T03:43:37.730Z,99984.09
2023-05-18T03:46:08.204Z,99989.09
2023-05-18T03:48:40.834Z,99979.38
2023-05-18T03:51:16.223Z,99974.63
2023-05-18T03:53:48.229Z,99977.06
2023-05-18T03:56:18.624Z,99970.88
2023-05-18T03:58:48.340Z,99968.81
2023-05-18T04:01:21.838Z,99959.50
2023-05-18T04:03:53.028Z,99959.41
2023-05-18T04:06:25.134Z,99957.19
2023-05-18T04:08:56.316Z,99956.25
2023-05-18T04:11:26.054Z,99958.88
2023-05-18T04:13:56.117Z,99953.00
2023-05-18T04:16:26.595Z,99943.19
2023-05-18T04:18:56.575Z,99950.28
2023-05-18T04:21:26.937Z,99959.84
2023-05-18T04:24:00.733Z,99956.34
2023-05-18T04:26:30.427Z,99945.78
2023-05-18T04:29:02.140Z,99946.59
2023-05-18T04:31:32.152Z,99950.53
2023-05-18T04:34:03.040Z,99948.91
2023-05-18T04:36:32.696Z,99939.53
2023-05-18T04:39:09.386Z,99935.91
2023-05-18T04:41:39.185Z,99931.81
2023-05-18T04:44:09.073Z,99912.41
2023-05-18T04:46:41.435Z,99917.19
2023-05-18T04:49:14.497Z,99919.00
2023-05-18T04:51:44.889Z,99927.78
2023-05-18T04:54:14.665Z,99920.97
2023-05-18T04:56:44.625Z,99921.69
2023-05-18T04:59:14.468Z,99929.19
2023-05-18T05:01:44.275Z,99918.81
2023-05-18T05:04:15.084Z,99930.22
2023-05-18T05:06:47.874Z,99928.59
2023-05-18T05:09:17.998Z,99937.28
2023-05-18T05:11:48.367Z,99938.13
2023-05-18T05:14:18.986Z,99939.16
2023-05-18T05:16:48.681Z,99936.91
2023-05-18T05:19:18.838Z,99933.81
2023-05-18T05:21:48.554Z,99936.75
2023-05-18T05:24:18.228Z,99941.19
2023-05-18T05:26:47.926Z,99942.91
2023-05-18T05:29:17.651Z,99951.47
2023-05-18T05:31:47.519Z,99941.84
2023-05-18T05:34:17.360Z,99930.00
2023-05-18T05:36:47.067Z,99921.28
2023-05-18T05:39:16.834Z,99908.25
2023-05-18T05:41:46.574Z,99900.78
2023-05-18T05:44:19.323Z,99907.63
2023-05-18T05:46:49.026Z,99900.38
2023-05-18T05:49:18.694Z,99891.44
2023-05-18T05:51:48.364Z,99888.13
2023-05-18T05:54:18.424Z,99882.28
2023-05-18T05:56:49.248Z,99884.16
2023-05-18T05:59:18.951Z,99878.53
2023-05-18T06:01:49.098Z,99885.00
2023-05-18T06:04:18.875Z,99891.34
2023-05-18T06:06:50.068Z,99883.66
2023-05-18T06:09:22.866Z,99873.25
2023-05-18T06:11:55.344Z,99876.06
2023-05-18T06:14:25.063Z,99880.16
2023-05-18T06:16:54.862Z,99877.81
2023-05-18T06:19:24.839Z,99875.78
2023-05-18T06:21:54.646Z,99865.75
2023-05-18T06:24:25.151Z,99857.41
2023-05-18T06:26:55.239Z,99864.28
2023-05-18T06:29:25.112Z,99849.59
2023-05-18T06:31:55.263Z,99852.88
2023-05-18T06:34:25.078Z,99851.47
2023-05-18T06:36:54.776Z,99849.75
2023-05-18T06:39:24.539Z,99840.81
2023-05-18T06:41:54.588Z,99842.16
2023-05-18T06:44:24.295Z,99830.91
2023-05-18T06:46:54.040Z,99837.88
2023-05-18T06:49:24.127Z,99837.16
2023-05-18T06:51:54.254Z,99835.72
2023-05-18T06:54:24.352Z,99834.00
2023-05-18T06:56:54.153Z,99827.16
2023-05-18T06:59:24.645Z,99833.38
2023-05-18T07:01:54.353Z,99826.94
2023-05-18T07:04:24.715Z,99836.63
2023-05-18T07:06:57.789Z,99834.38
2023-05-18T07:09:29.017Z,99836.09
2023-05-18T07:12:01.325Z,99829.09
2023-05-18T07:14:31.762Z,99830.25
2023-05-18T07:17:01.549Z,99830.63
2023-05-18T07:19:31.419Z,99835.38
2023-05-18T07:22:01.210Z,99836.19
2023-05-18T07:24:30.923Z,99829.09
2023-05-18T07:27:01.729Z,99826.56
2023-05-18T07:29:32.044Z,99818.09
2023-05-18T07:32:01.717Z,99827.84
2023-05-18T07:34:31.515Z,99830.56
2023-05-18T07:37:01.294Z,99826.78
2023-05-18T07:39:31.143Z,99827.56
2023-05-18T07:42:01.398Z,99827.03
2023-05-18T07:44:31.194Z,99828.59
2023-05-18T07:47:00.991Z,99818.91
2023-05-18T07:49:31.213Z,99820.88
2023-05-18T07:52:02.415Z,99826.28
2023-05-18T07:54:32.150Z,99825.06
2023-05-18T07:57:01.840Z,99813.00
2023-05-18T07:59:31.994Z,99803.38
2023-05-18T08:02:03.655Z,99809.00
2023-05-18T08:04:33.417Z,99808.63
2023-05-18T08:07:03.683Z,99805.06
2023-05-18T08:09:33.774Z,99816.69
2023-05-18T08:12:03.525Z,99812.53
2023-05-18T08:14:33.327Z,99812.16
2023-05-18T08:17:03.111Z,99809.59
2023-05-18T08:19:33.158Z,99815.88
2023-05-18T08:22:04.066Z,99816.06
2023-05-18T08:24:34.834Z,99811.28
2023-05-18T08:27:05.164Z,99814.59
2023-05-18T08:29:37.827Z,99816.91
2023-05-18T08:32:10.778Z,99819.22
2023-05-18T08:34:43.215Z,99813.81
2023-05-18T08:37:12.936Z,99816.69
2023-05-18T08:39:42.760Z,99818.34
2023-05-18T08:42:29.513Z,99818.56
2023-05-18T08:45:26.256Z,99812.31
2023-05-18T08:47:56.287Z,99808.97
2023-05-18T08:50:26.122Z,99808.97
2023-05-18T08:52:58.622Z,99801.88
2023-05-18T08:55:29.738Z,99809.16
2023-05-18T08:58:01.908Z,99805.88
2023-05-18T09:00:32.116Z,99807.91
2023-05-18T09:03:04.403Z,99816.25
2023-05-18T09:05:34.484Z,99822.25
2023-05-18T09:08:05.160Z,99812.69
2023-05-18T09:10:35.285Z,99813.75
2023-05-18T09:13:05.942Z,99814.13
2023-05-18T09:15:39.118Z,99806.03
2023-05-18T09:18:09.012Z,99818.06
2023-05-18T09:20:38.756Z,99814.06
2023-05-18T09:23:09.217Z,99822.63
2023-05-18T09:25:38.982Z,99816.16
2023-05-18T09:28:08.746Z,99812.41
2023-05-18T09:30:45.710Z,99818.50
2023-05-18T09:33:20.861Z,99815.19
2023-05-18T09:35:50.180Z,99819.16
2023-05-18T09:38:23.463Z,99817.09
2023-05-18T09:40:53.346Z,99813.09
2023-05-18T09:43:23.277Z,99814.72
2023-05-18T09:45:55.922Z,99815.56
2023-05-18T09:48:26.874Z,99816.16
2023-05-18T09:50:56.654Z,99819.13
2023-05-18T09:53:26.396Z,99820.75
2023-05-18T09:55:56.147Z,99818.50
2023-05-18T09:58:26.747Z,99817.66
2023-05-18T10:00:58.467Z,99820.13
2023-05-18T10:03:28.340Z,99826.38
2023-05-18T10:05:58.056Z,99835.94
2023-05-18T10:08:27.836Z,99823.47
2023-05-18T10:10:57.800Z,99828.25
2023-05-18T10:13:28.993Z,99827.44
2023-05-18T10:16:00.778Z,99826.22
2023-05-18T10:18:32.049Z,99835.53
2023-05-18T10:21:03.936Z,99847.91
2023-05-18T10:23:35.160Z,99846.25
2023-05-18T10:26:09.983Z,99845.88
2023-05-18T10:28:49.954Z,99840.47
2023-05-18T10:31:20.227Z,99842.59
2023-05-18T10:33:50.042Z,99844.00
2023-05-18T10:36:20.095Z,99846.50
2023-05-18T10:38:49.885Z,99840.84
2023-05-18T10:41:19.653Z,99849.56
2023-05-18T10:43:49.750Z,99857.09
2023-05-18T10:46:20.037Z,99853.56
2023-05-18T10:48:50.019Z,99853.56
2023-05-18T10:51:20.582Z,99850.22
2023-05-18T10:53:52.825Z,99849.41
2023-05-18T10:56:24.957Z,99853.41
2023-05-18T10:58:55.409Z,99858.56
2023-05-18T11:01:25.133Z,99860.69
2023-05-18T11:03:54.887Z,99866.09
2023-05-18T11:06:26.334Z,99867.34
2023-05-18T11:08:56.128Z,99863.59
2023-05-18T11:11:28.427Z,99864.66
2023-05-18T11:14:04.040Z,99864.06
2023-05-18T11:16:38.582Z,99868.84
2023-05-18T11:19:09.068Z,99873.44
2023-05-18T11:21:38.872Z,99875.31
2023-05-18T11:24:18.355Z,99875.97
2023-05-18T11:26:49.911Z,99877.41
2023-05-18T11:29:20.328Z,99875.53
2023-05-18T11:31:55.691Z,99885.72
2023-05-18T11:34:46.643Z,99882.63
2023-05-18T11:37:20.514Z,99880.41
2023-05-18T11:40:01.650Z,99876.03
2023-05-18T11:42:37.533Z,99877.47
2023-05-18T11:45:14.558Z,99892.03
2023-05-18T11:47:44.773Z,99890.53
2023-05-18T11:50:14.828Z,99887.25
2023-05-18T11:52:52.802Z,99902.84
2023-05-18T11:55:23.081Z,99907.00
2023-05-18T11:57:56.595Z,99909.06
2023-05-18T12:00:26.323Z,99916.16
2023-05-18T12:02:56.336Z,99918.00
2023-05-18T12:05:26.174Z,99909.91
2023-05-18T12:07:56.184Z,99919.88
2023-05-18T12:10:25.947Z,99925.09
2023-05-18T12:12:55.748Z,99924.28
2023-05-18T12:15:26.410Z,99922.81
2023-05-18T12:17:56.119Z,99938.00
2023-05-18T12:20:30.003Z,99937.41
2023-05-18T12:23:00.169Z,99943.41
2023-05-18T12:25:30.239Z,99939.88
2023-05-18T12:28:03.713Z,99942.56
2023-05-18T12:30:36.685Z,99957.75
2023-05-18T12:33:08.617Z,99951.72
2023-05-18T12:35:38.432Z,99946.09
2023-05-18T12:38:16.915Z,99946.94
2023-05-18T12:40:50.564Z,99944.44
2023-05-18T12:43:20.428Z,99950.69
2023-05-18T12:45:50.482Z,99945.28
2023-05-18T12:48:20.258Z,99947.97
2023-05-18T12:50:50.874Z,99953.63
2023-05-18T12:53:21.052Z,99949.25
2023-05-18T12:56:03.307Z,99950.75
2023-05-18T12:58:34.464Z,99944.06
2023-05-18T13:01:10.907Z,99947.81
2023-05-18T13:03:43.967Z,99943.69
2023-05-18T13:06:13.807Z,99945.09
2023-05-18T13:08:44.027Z,99948.44
2023-05-18T13:11:16.642Z,99942.41
2023-05-18T13:14:21.745Z,99945.38
2023-05-18T13:16:54.103Z,99942.84
2023-05-18T13:19:23.915Z,99944.50
2023-05-18T13:22:00.206Z,99948.25
2023-05-18T13:24:31.104Z,99942.63
2023-05-18T13:27:00.743Z,99939.69
2023-05-18T13:29:30.421Z,99936.19
2023-05-18T13:32:00.277Z,99942.63
2023-05-18T13:34:31.019Z,99929.13
2023-05-18T13:37:02.479Z,99935.34
2023-05-18T13:39:32.266Z,99934.72
2023-05-18T13:42:03.971Z,99927.47
2023-05-18T13:44:34.157Z,99926.63
2023-05-18T13:47:03.867Z,99927.47
2023-05-18T13:49:34.571Z,99927.47
2023-05-18T13:52:04.296Z,99923.91
2023-05-18T13:54:36.678Z,99919.78
2023-05-18T13:57:07.294Z,99914.97
2023-05-18T13:59:37.040Z,99915.81
2023-05-18T14:02:06.957Z,99924.13
2023-05-18T14:04:36.794Z,99914.97
2023-05-18T14:07:06.874Z,99916.84
2023-05-18T14:09:39.399Z,99911.91
2023-05-18T14:12:11.658Z,99907.09
2023-05-18T14:14:42.729Z,99910.03
2023-05-18T14:17:14.189Z,99905.44
2023-05-18T14:19:44.164Z,99894.66
2023-05-18T14:22:13.928Z,99891.72
2023-05-18T14:24:43.667Z,99887.59
2023-05-18T14:27:13.470Z,99877.97
2023-05-18T14:29:43.655Z,99883.00
2023-05-18T14:32:13.423Z,99879.25
2023-05-18T14:34:45.558Z,99871.38
2023-05-18T14:37:15.349Z,99861.81
2023-05-18T14:39:45.078Z,99863.25
2023-05-18T14:42:14.795Z,99870.53
2023-05-18T14:44:44.634Z,99864.91
2023-05-18T14:47:14.440Z,99872.19
2023-05-18T14:49:44.314Z,99872.19
2023-05-18T14:52:14.111Z,99874.91
2023-05-18T14:54:44.200Z,99873.84
2023-05-18T14:57:14.934Z,99885.47
2023-05-18T14:59:45.063Z,99879.00
2023-05-18T15:02:14.842Z,99880.91
2023-05-18T15:04:45.690Z,99888.19
2023-05-18T15:07:15.821Z,99873.03
2023-05-18T15:09:45.623Z,99864.69
2023-05-18T15:12:15.385Z,99852.44
2023-05-18T15:14:45.183Z,99858.88
2023-05-18T15:17:16.544Z,99856.81
2023-05-18T15:19:46.607Z,99853.47
2023-05-18T15:22:16.364Z,99855.97
2023-05-18T15:24:46.492Z,99852.44
2023-05-18T15:27:16.692Z,99842.66
2023-05-18T15:29:46.483Z,99844.34
2023-05-18T15:32:16.923Z,99844.13
2023-05-18T15:34:46.695Z,99837.50
2023-05-18T15:37:16.500Z,99831.03
2023-05-18T15:39:48.944Z,99832.09
2023-05-18T15:42:22.279Z,99828.13
2023-05-18T15:44:52.572Z,99831.66
2023-05-18T15:47:22.790Z,99826.25
2023-05-18T15:49:52.592Z,99823.75
2023-05-18T15:52:22.351Z,99821.91
2023-05-18T15:54:52.125Z,99825.28
2023-05-18T15:57:23.787Z,99819.63
2023-05-18T15:59:53.542Z,99822.34
2023-05-18T16:02:25.696Z,99823.81
2023-05-18T16:04:56.265Z,99821.50
2023-05-18T16:07:26.059Z,99817.16
2023-05-18T16:09:55.784Z,99811.09
2023-05-18T16:12:25.527Z,99800.94
2023-05-18T16:14:58.111Z,99808.22
2023-05-18T16:17:27.893Z,99813.00
2023-05-18T16:19:57.597Z,99810.69
2023-05-18T16:22:27.568Z,99812.34
2023-05-18T16:24:59.229Z,99805.06
2023-05-18T16:27:29.198Z,99808.00
2023-05-18T16:29:58.970Z,99808.81
2023-05-18T16:32:29.394Z,99809.88
2023-05-18T16:34:59.330Z,99809.88
2023-05-18T16:37:29.106Z,99808.22
2023-05-18T16:39:58.800Z,99811.38
2023-05-18T16:42:28.634Z,99807.44
2023-05-18T16:44:58.431Z,99807.00
2023-05-18T16:47:29.093Z,99809.47
2023-05-18T16:49:58.831Z,99799.28
2023-05-18T16:52:28.606Z,99798.44
2023-05-18T16:54:58.413Z,99806.78
2023-05-18T16:57:28.219Z,99799.97
2023-05-18T16:59:59.317Z,99803.25
2023-05-18T17:02:29.566Z,99798.69
2023-05-18T17:05:01.303Z,99799.50
2023-05-18T17:07:32.377Z,99809.47
2023-05-18T17:10:02.245Z,99811.13
2023-05-18T17:12:32.014Z,99805.13
2023-05-18T17:15:04.123Z,99802.88
2023-05-18T17:17:34.055Z,99798.91
2023-05-18T17:20:03.921Z,99791.84
2023-05-18T17:22:34.134Z,99802.88
2023-05-18T17:25:04.017Z,99800.56
2023-05-18T17:27:33.874Z,99801.22
2023-05-18T17:30:03.618Z,99796.63
2023-05-18T17:32:33.485Z,99796.03
2023-05-18T17:35:03.673Z,99784.84
2023-05-18T17:37:33.407Z,99784.41
2023-05-18T17:40:03.313Z,99776.34
2023-05-18T17:42:33.178Z,99780.84
2023-05-18T17:45:02.943Z,99776.75
2023-05-18T17:47:32.684Z,99772.59
2023-05-18T17:50:02.716Z,99775.53
2023-05-18T17:52:32.499Z,99770.13
2023-05-18T17:55:02.242Z,99762.03
2023-05-18T17:57:32.905Z,99767.41
2023-05-18T18:00:02.726Z,99762.66
2023-05-18T18:02:32.593Z,99756.44
2023-05-18T18:05:02.389Z,99752.69
2023-05-18T18:07:32.894Z,99747.09
2023-05-18T18:10:02.643Z,99749.56
2023-05-18T18:12:33.827Z,99746.28
2023-05-18T18:15:03.564Z,99744.59
2023-05-18T18:17:36.127Z,99750.19
2023-05-18T18:20:07.283Z,99743.97
2023-05-18T18:22:38.165Z,99754.19
2023-05-18T18:25:09.585Z,99750.44
2023-05-18T18:27:39.285Z,99758.53
2023-05-18T18:30:10.441Z,99762.06
2023-05-18T18:32:43.663Z,99757.09
2023-05-18T18:35:13.488Z,99758.94
2023-05-18T18:37:44.233Z,99762.47
2023-05-18T18:40:15.911Z,99754.56
2023-05-18T18:42:45.652Z,99768.72
2023-05-18T18:45:15.396Z,99763.31
2023-05-18T18:47:46.146Z,99757.09
2023-05-18T18:50:15.873Z,99764.13
2023-05-18T18:52:46.012Z,99754.97
2023-05-18T18:55:15.823Z,99763.31
2023-05-18T18:57:45.936Z,99768.47
2023-05-18T19:00:21.789Z,99763.06
2023-05-18T19:02:51.661Z,99771.41
2023-05-18T19:05:27.383Z,99774.47
2023-05-18T19:07:57.318Z,99775.53
2023-05-18T19:10:27.197Z,99771.19
2023-05-18T19:12:57.210Z,99779.88
2023-05-18T19:15:26.869Z,99782.16
2023-05-18T19:17:56.726Z,99785.09
2023-05-18T19:20:26.424Z,99788.59
2023-05-18T19:22:56.215Z,99792.38
2023-05-18T19:25:31.315Z,99797.53
2023-05-18T19:28:01.658Z,99804.78
2023-05-18T19:30:32.062Z,99799.03
2023-05-18T19:33:01.818Z,99795.06
2023-05-18T19:35:33.295Z,99790.25
2023-05-18T19:38:03.803Z,99782.97
2023-05-18T19:40:33.484Z,99796.47
2023-05-18T19:43:03.238Z,99790.47
2023-05-18T19:45:35.292Z,99797.38
2023-05-18T19:48:05.844Z,99798.19
2023-05-18T19:50:38.231Z,99786.97
2023-05-18T19:53:07.858Z,99783.19
2023-05-18T19:55:37.578Z,99788.81
2023-05-18T19:58:12.036Z,99790.31
2023-05-18T20:00:43.046Z,99783.69
2023-05-18T20:03:12.914Z,99785.75
2023-05-18T20:05:45.220Z,99784.69
2023-05-18T20:08:15.127Z,99791.75
2023-05-18T20:10:46.062Z,99787.38
2023-05-18T20:13:16.867Z,99792.38
2023-05-18T20:15:46.548Z,99797.16
2023-05-18T20:18:16.344Z,99801.13
2023-05-18T20:20:46.149Z,99802.31
2023-05-18T20:23:19.631Z,99801.72
2023-05-18T20:25:49.821Z,99800.91
2023-05-18T20:28:19.889Z,99800.91
2023-05-18T20:30:49.644Z,99802.78
2023-05-18T20:33:19.355Z,99801.53
2023-05-18T20:35:49.801Z,99794.91
2023-05-18T20:38:20.201Z,99790.53
2023-05-18T20:40:52.477Z,99792.38
2023-05-18T20:43:25.485Z,99790.91
2023-05-18T20:45:59.448Z,99795.06
2023-05-18T20:48:30.482Z,99800.31
2023-05-18T20:51:00.258Z,99802.31
2023-05-18T20:53:29.998Z,99809.00
2023-05-18T20:56:03.678Z,99817.34
2023-05-18T20:58:37.471Z,99806.09
2023-05-18T21:01:08.547Z,99812.34
2023-05-18T21:03:39.920Z,99808.66
2023-05-18T21:06:09.909Z,99815.03
2023-05-18T21:08:40.083Z,99824.19
2023-05-18T21:11:09.842Z,99825.66
2023-05-18T21:13:39.583Z,99826.50
2023-05-18T21:16:11.188Z,99823.81
2023-05-18T21:18:41.004Z,99834.59
2023-05-18T21:21:12.525Z,99838.34
2023-05-18T21:23:42.525Z,99835.81
2023-05-18T21:26:12.223Z,99835.59
2023-05-18T21:28:44.357Z,99842.88
2023-05-18T21:31:14.182Z,99840.41
2023-05-18T21:33:44.758Z,99838.53
2023-05-18T21:36:14.609Z,99843.94
2023-05-18T21:38:44.406Z,99842.28
2023-05-18T21:41:14.170Z,99837.94
2023-05-18T21:43:43.854Z,99841.66
2023-05-18T21:46:13.706Z,99850.16
2023-05-18T21:48:43.432Z,99850.38
2023-05-18T21:51:15.508Z,99852.47
2023-05-18T21:53:45.228Z,99849.97
2023-05-18T21:56:15.316Z,99853.09
2023-05-18T21:58:45.674Z,99858.69
2023-05-18T22:01:15.462Z,99851.44
2023-05-18T22:03:45.211Z,99858.91
2023-05-18T22:06:16.844Z,99863.50
2023-05-18T22:08:48.695Z,99865.59
2023-05-18T22:11:18.402Z,99868.66
2023-05-18T22:13:48.153Z,99871.38
2023-05-18T22:16:17.946Z,99877.81
2023-05-18T22:18:47.698Z,99880.75
2023-05-18T22:21:17.616Z,99874.47
2023-05-18T22:23:47.683Z,99876.34
2023-05-18T22:26:17.435Z,99876.34
2023-05-18T22:28:47.605Z,99874.06
2023-05-18T22:31:18.237Z,99878.00
2023-05-18T22:33:47.975Z,99875.50
2023-05-18T22:36:25.641Z,99882.78
2023-05-18T22:38:55.362Z,99886.91
2023-05-18T22:41:28.416Z,99885.03
2023-05-18T22:43:58.098Z,99890.81
2023-05-18T22:46:27.887Z,99885.41
2023-05-18T22:48:57.695Z,99900.38
2023-05-18T22:51:29.805Z,99898.97
2023-05-18T22:53:59.952Z,99900.59
2023-05-18T22:56:29.647Z,99908.22
2023-05-18T22:58:59.427Z,99908.88
2023-05-18T23:01:29.202Z,99912.44
2023-05-18T23:04:01.867Z,99912.41
2023-05-18T23:06:33.234Z,99920.38
2023-05-18T23:09:03.441Z,99917.75
2023-05-18T23:11:36.462Z,99900.09
2023-05-18T23:14:06.226Z,99905.88
2023-05-18T23:16:36.329Z,99928.38
2023-05-18T23:19:06.759Z,99932.75
2023-05-18T23:21:36.554Z,99932.50
2023-05-18T23:24:10.998Z,99936.19
2023-05-18T23:26:44.415Z,99946.41
2023-05-18T23:29:14.937Z,99942.19
2023-05-18T23:31:44.865Z,99937.66
2023-05-18T23:34:14.781Z,99942.19
2023-05-18T23:36:44.691Z,99945.56
2023-05-18T23:39:14.715Z,99935.72
2023-05-18T23:41:45.178Z,99927.19
2023-05-18T23:44:15.150Z,99926.72
2023-05-18T23:46:45.652Z,99927.94
2023-05-18T23:49:15.607Z,99922.91
2023-05-18T23:51:47.464Z,99921.50
2023-05-18T23:54:18.164Z,99931.53
2023-05-18T23:56:48.932Z,99933.59
2023-05-18T23:59:19.957Z,99934.63
